createdAt,value
2019-04-07T00:02:24.584Z,8.77
2019-04-07T00:04:53.527Z,7.80
2019-04-07T00:07:22.158Z,8.00
2019-04-07T00:09:50.677Z,8.47
2019-04-07T00:12:19.182Z,7.70
2019-04-07T00:15:03.655Z,8.23
2019-04-07T00:17:32.355Z,6.53
2019-04-07T00:20:00.817Z,6.70
2019-04-07T00:22:29.837Z,7.43
2019-04-07T00:24:58.409Z,7.17
2019-04-07T00:27:26.892Z,7.30
2019-04-07T00:29:55.492Z,7.30
2019-04-07T00:32:24.940Z,6.70
2019-04-07T00:34:54.051Z,7.07
2019-04-07T00:37:22.987Z,5.47
2019-04-07T00:39:51.625Z,4.70
2019-04-07T00:42:20.102Z,4.80
2019-04-07T00:44:48.607Z,4.90
2019-04-07T00:47:17.098Z,5.27
2019-04-07T00:49:46.626Z,5.27
2019-04-07T00:52:17.318Z,4.90
2019-04-07T00:54:45.984Z,5.50
2019-04-07T00:57:14.834Z,4.73
2019-04-07T00:59:43.305Z,6.00
2019-04-07T01:02:12.272Z,6.43
2019-04-07T01:04:40.993Z,6.73
2019-04-07T01:07:10.215Z,6.87
2019-04-07T01:09:38.980Z,7.03
2019-04-07T01:12:07.851Z,7.63
2019-04-07T01:14:36.791Z,6.87
2019-04-07T01:17:06.128Z,7.53
2019-04-07T01:19:34.644Z,6.57
2019-04-07T01:22:03.190Z,7.00
2019-04-07T01:24:33.044Z,6.23
2019-04-07T01:27:01.742Z,7.10
2019-04-07T01:29:30.792Z,6.63
2019-04-07T01:31:59.541Z,7.40
2019-04-07T01:34:33.048Z,6.90
2019-04-07T01:37:01.548Z,6.67
2019-04-07T01:39:30.673Z,6.93
2019-04-07T01:42:12.967Z,7.17
2019-04-07T01:44:43.119Z,7.67
2019-04-07T01:47:19.085Z,7.47
2019-04-07T01:49:49.268Z,7.40
2019-04-07T01:52:19.625Z,7.13
2019-04-07T01:54:55.935Z,6.20
2019-04-07T01:57:35.454Z,8.03
2019-04-07T02:00:08.343Z,6.80
2019-04-07T02:02:50.064Z,6.80
2019-04-07T02:05:36.481Z,6.70
2019-04-07T02:08:09.756Z,7.43
2019-04-07T02:10:55.155Z,6.93
2019-04-07T02:13:25.295Z,6.90
2019-04-07T02:15:56.039Z,7.57
2019-04-07T02:18:32.927Z,7.47
2019-04-07T02:21:20.682Z,7.43
2019-04-07T02:23:56.933Z,7.23
2019-04-07T02:26:27.873Z,8.10
2019-04-07T02:29:16.014Z,7.90
2019-04-07T02:34:34.083Z,7.60
2019-04-07T02:37:13.910Z,7.57
2019-04-07T02:39:50.689Z,7.40
2019-04-07T02:42:26.768Z,7.57
2019-04-07T02:44:59.663Z,7.83
2019-04-07T02:47:32.667Z,7.77
2019-04-07T02:50:21.933Z,7.73
2019-04-07T02:53:08.385Z,7.37
2019-04-07T02:55:53.691Z,6.50
2019-04-07T02:58:29.804Z,7.90
2019-04-07T03:01:05.947Z,8.57
2019-04-07T03:03:39.174Z,8.43
2019-04-07T03:06:32.464Z,7.90
2019-04-07T03:08:50.619Z,7.67
2019-04-07T03:11:24.769Z,7.30
2019-04-07T03:14:12.386Z,7.60
2019-04-07T03:16:51.771Z,8.43
2019-04-07T03:19:27.881Z,8.00
2019-04-07T03:22:01.019Z,8.80
2019-04-07T03:24:31.384Z,8.77
2019-04-07T03:27:13.497Z,9.73
2019-04-07T03:29:56.708Z,9.50
2019-04-07T03:32:45.355Z,8.90
2019-04-07T03:35:32.807Z,8.43
2019-04-07T03:38:05.003Z,7.67
2019-04-07T03:40:51.638Z,9.00
2019-04-07T03:43:30.460Z,8.50
2019-04-07T03:46:09.250Z,8.40
2019-04-07T03:48:42.398Z,8.30
2019-04-07T03:51:24.440Z,8.67
2019-04-07T03:54:03.185Z,8.87
2019-04-07T03:56:43.381Z,9.53
2019-04-07T03:59:29.866Z,8.93
2019-04-07T04:02:18.420Z,8.60
2019-04-07T04:05:15.236Z,8.70
2019-04-07T04:07:54.640Z,9.00
2019-04-07T04:10:24.876Z,8.50
2019-04-07T04:12:55.010Z,8.47
2019-04-07T04:15:25.146Z,8.70
2019-04-07T04:17:53.918Z,8.03
2019-04-07T04:20:22.570Z,8.90
2019-04-07T04:22:51.074Z,9.27
2019-04-07T04:25:19.560Z,9.90
2019-04-07T04:27:48.624Z,9.33
2019-04-07T04:30:17.440Z,8.60
2019-04-07T04:32:46.400Z,9.53
2019-04-07T04:35:15.128Z,9.07
2019-04-07T04:37:48.834Z,9.17
2019-04-07T04:40:15.961Z,9.63
2019-04-07T04:42:44.732Z,9.53
2019-04-07T04:45:13.813Z,9.60
2019-04-07T04:47:42.967Z,9.27
2019-04-07T04:50:12.792Z,9.33
2019-04-07T04:52:42.775Z,9.20
2019-04-07T04:55:11.707Z,9.83
2019-04-07T04:57:40.507Z,8.50
2019-04-07T05:00:10.381Z,9.00
2019-04-07T05:02:39.461Z,9.20
2019-04-07T05:05:09.553Z,10.40
2019-04-07T05:07:49.814Z,9.90
2019-04-07T05:10:10.243Z,9.80
2019-04-07T05:12:39.132Z,9.50
2019-04-07T05:15:09.730Z,10.37
2019-04-07T05:17:38.915Z,10.43
2019-04-07T05:20:08.063Z,10.13
2019-04-07T05:22:36.841Z,9.97
2019-04-07T05:25:07.038Z,10.80
2019-04-07T05:27:35.830Z,9.63
2019-04-07T05:30:07.646Z,10.30
2019-04-07T05:32:37.954Z,8.70
2019-04-07T05:35:07.902Z,9.07
2019-04-07T05:37:37.360Z,8.63
2019-04-07T05:40:07.410Z,8.93
2019-04-07T05:42:35.924Z,9.87
2019-04-07T05:45:06.656Z,9.40
2019-04-07T05:47:35.156Z,9.03
2019-04-07T05:50:05.257Z,9.53
2019-04-07T05:52:39.043Z,8.93
2019-04-07T05:55:07.744Z,9.53
2019-04-07T05:57:36.360Z,10.40
2019-04-07T06:00:07.854Z,10.50
2019-04-07T06:02:36.415Z,10.90
2019-04-07T06:05:06.653Z,11.30
2019-04-07T06:07:36.760Z,11.00
2019-04-07T06:10:08.080Z,11.57
2019-04-07T06:12:39.309Z,11.67
2019-04-07T06:15:08.702Z,10.93
2019-04-07T06:17:37.869Z,11.83
2019-04-07T06:20:12.144Z,13.13
2019-04-07T06:22:38.774Z,12.57
2019-04-07T06:25:09.607Z,12.43
2019-04-07T06:27:38.414Z,16.33
2019-04-07T06:30:11.828Z,15.03
2019-04-07T06:32:41.019Z,14.97
2019-04-07T06:35:13.329Z,13.27
2019-04-07T06:37:41.811Z,13.90
2019-04-07T06:40:11.118Z,12.80
2019-04-07T06:42:40.455Z,11.93
2019-04-07T06:45:12.950Z,12.27
2019-04-07T06:47:46.400Z,11.40
2019-04-07T06:50:44.394Z,10.97
2019-04-07T06:53:05.399Z,10.50
2019-04-07T06:55:36.260Z,10.80
2019-04-07T06:58:21.928Z,10.43
2019-04-07T07:00:55.966Z,10.17
2019-04-07T07:03:38.802Z,10.90
2019-04-07T07:06:11.109Z,10.80
2019-04-07T07:08:52.995Z,11.93
2019-04-07T07:11:29.313Z,10.60
2019-04-07T07:13:56.622Z,10.60
2019-04-07T07:16:44.439Z,11.10
2019-04-07T07:19:26.348Z,11.10
2019-04-07T07:22:15.514Z,9.70
2019-04-07T07:24:41.676Z,10.83
2019-04-07T07:27:12.138Z,11.07
2019-04-07T07:29:40.998Z,10.20
2019-04-07T07:32:09.459Z,10.23
2019-04-07T07:34:41.964Z,10.80
2019-04-07T07:37:08.417Z,11.47
2019-04-07T07:39:36.902Z,11.67
2019-04-07T07:42:05.783Z,10.40
2019-04-07T07:44:37.539Z,11.07
2019-04-07T07:47:04.789Z,11.67
2019-04-07T07:49:36.009Z,11.00
2019-04-07T07:52:03.601Z,11.30
2019-04-07T07:54:32.110Z,11.70
2019-04-07T07:57:01.338Z,12.03
2019-04-07T07:59:33.532Z,11.47
2019-04-07T08:02:00.096Z,11.03
2019-04-07T08:04:29.152Z,12.70
2019-04-07T08:06:57.981Z,14.27
2019-04-07T08:09:27.229Z,12.03
2019-04-07T08:11:56.194Z,13.07
2019-04-07T08:14:24.693Z,14.47
2019-04-07T08:16:53.201Z,14.40
2019-04-07T08:19:25.371Z,13.83
2019-04-07T08:21:52.074Z,14.47
2019-04-07T08:24:36.233Z,13.97
2019-04-07T08:27:05.273Z,13.03
2019-04-07T08:29:37.182Z,13.63
2019-04-07T08:32:04.372Z,13.83
2019-04-07T08:34:33.038Z,13.67
2019-04-07T08:37:02.760Z,13.07
2019-04-07T08:39:35.081Z,14.43
2019-04-07T08:42:03.705Z,13.37
2019-04-07T08:44:32.715Z,13.27
2019-04-07T08:47:01.427Z,12.67
2019-04-07T08:49:32.341Z,12.70
2019-04-07T08:52:04.041Z,12.00
2019-04-07T08:54:30.629Z,12.80
2019-04-07T08:57:00.193Z,11.90
2019-04-07T08:59:29.133Z,12.40
2019-04-07T09:01:58.098Z,12.50
2019-04-07T09:04:26.693Z,11.40
2019-04-07T09:06:59.384Z,11.13
2019-04-07T09:09:32.656Z,11.77
2019-04-07T09:11:57.500Z,12.27
2019-04-07T09:14:27.192Z,12.00
2019-04-07T09:17:13.709Z,11.63
2019-04-07T09:19:44.321Z,11.67
2019-04-07T09:22:22.867Z,12.60
2019-04-07T09:25:09.623Z,12.67
2019-04-07T09:27:43.231Z,12.60
2019-04-07T09:30:15.313Z,13.37
2019-04-07T09:32:46.044Z,13.53
2019-04-07T09:35:33.385Z,14.00
2019-04-07T09:38:04.416Z,14.90
2019-04-07T09:40:50.678Z,13.90
2019-04-07T09:43:37.197Z,13.13
2019-04-07T09:46:24.297Z,12.60
2019-04-07T09:48:58.710Z,11.67
2019-04-07T09:51:45.173Z,12.00
2019-04-07T09:54:25.160Z,11.93
2019-04-07T09:57:05.051Z,11.63
2019-04-07T09:59:39.724Z,12.30
2019-04-07T10:02:26.229Z,12.03
2019-04-07T10:05:05.095Z,12.80
2019-04-07T10:07:35.922Z,11.57
2019-04-07T10:10:17.422Z,13.30
2019-04-07T10:12:56.665Z,13.83
2019-04-07T10:15:36.173Z,12.50
2019-04-07T10:18:22.963Z,13.00
2019-04-07T10:20:58.866Z,13.43
2019-04-07T10:23:45.862Z,14.27
2019-04-07T10:26:33.800Z,12.10
2019-04-07T10:29:04.620Z,13.20
2019-04-07T10:31:35.434Z,13.30
2019-04-07T10:34:06.259Z,12.63
2019-04-07T10:36:45.805Z,12.53
2019-04-07T10:39:19.758Z,12.30
2019-04-07T10:41:59.006Z,12.03
2019-04-07T10:44:45.459Z,11.83
2019-04-07T10:50:20.074Z,11.60
2019-04-07T10:52:56.256Z,9.20
2019-04-07T10:55:44.230Z,9.07
2019-04-07T10:58:17.490Z,9.87
2019-04-07T11:00:49.407Z,8.17
2019-04-07T11:03:19.757Z,8.60
2019-04-07T11:06:07.234Z,7.97
2019-04-07T11:08:53.480Z,8.03
2019-04-07T11:11:38.947Z,8.00
2019-04-07T11:14:42.937Z,7.43
2019-04-07T11:17:16.190Z,6.60
2019-04-07T11:19:53.100Z,6.50
2019-04-07T11:22:40.158Z,6.70
2019-04-07T11:25:27.387Z,7.30
2019-04-07T11:28:06.759Z,6.80
2019-04-07T11:30:43.741Z,5.90
2019-04-07T11:33:30.070Z,6.93
2019-04-07T11:36:06.041Z,5.90
2019-04-07T11:38:53.359Z,5.80
2019-04-07T11:41:27.727Z,5.27
2019-04-07T11:44:01.921Z,5.70
2019-04-07T11:46:48.580Z,5.80
2019-04-07T11:49:19.500Z,5.97
2019-04-07T11:51:49.842Z,5.67
2019-04-07T11:54:29.576Z,5.63
2019-04-07T11:57:15.385Z,6.00
2019-04-07T12:00:02.419Z,6.17
2019-04-07T12:02:33.065Z,5.60
2019-04-07T12:05:15.910Z,5.70
2019-04-07T12:08:02.615Z,5.80
2019-04-07T12:10:56.297Z,6.23
2019-04-07T12:13:17.039Z,6.13
2019-04-07T12:16:03.695Z,6.23
2019-04-07T12:18:52.390Z,5.87
2019-04-07T12:21:25.829Z,5.80
2019-04-07T12:24:03.256Z,6.57
2019-04-07T12:26:43.682Z,6.33
2019-04-07T12:29:23.383Z,6.13
2019-04-07T12:31:59.793Z,6.47
2019-04-07T12:34:47.762Z,6.60
2019-04-07T12:37:18.785Z,6.30
2019-04-07T12:40:04.345Z,6.27
2019-04-07T12:42:52.485Z,5.80
2019-04-07T12:45:23.543Z,7.00
2019-04-07T12:47:57.171Z,6.70
2019-04-07T12:50:42.633Z,6.90
2019-04-07T12:53:34.397Z,6.43
2019-04-07T12:56:18.617Z,6.63
2019-04-07T13:01:49.730Z,6.53
2019-04-07T13:04:28.624Z,6.60
2019-04-07T13:06:58.877Z,7.10
2019-04-07T13:09:46.092Z,6.47
2019-04-07T13:12:33.238Z,7.50
2019-04-07T13:15:11.926Z,7.37
2019-04-07T13:17:44.173Z,6.70
2019-04-07T13:20:26.838Z,6.83
2019-04-07T13:23:00.344Z,7.30
2019-04-07T13:25:45.610Z,7.13
2019-04-07T13:28:16.449Z,7.10
2019-04-07T13:30:58.887Z,7.33
2019-04-07T13:33:34.910Z,7.40
2019-04-07T13:36:17.586Z,7.33
2019-04-07T13:38:47.688Z,7.13
2019-04-07T13:41:23.864Z,7.53
2019-04-07T13:44:04.761Z,7.40
2019-04-07T13:46:40.140Z,7.40
2019-04-07T13:49:27.416Z,7.07
2019-04-07T13:51:59.903Z,7.67
2019-04-07T13:54:33.859Z,7.40
2019-04-07T13:57:04.564Z,7.40
2019-04-07T13:59:50.816Z,7.93
2019-04-07T14:02:24.776Z,7.23
2019-04-07T14:05:05.199Z,7.90
2019-04-07T14:07:53.934Z,7.73
2019-04-07T14:10:37.217Z,8.10
2019-04-07T14:13:10.817Z,7.20
2019-04-07T14:15:48.742Z,8.00
2019-04-07T14:18:24.535Z,7.97
2019-04-07T14:21:00.459Z,8.03
2019-04-07T14:23:30.598Z,7.90
2019-04-07T14:26:16.821Z,7.57
2019-04-07T14:28:53.296Z,7.70
2019-04-07T14:31:40.130Z,7.93
2019-04-07T14:34:10.727Z,7.90
2019-04-07T14:37:00.014Z,8.63
2019-04-07T14:39:30.326Z,7.80
2019-04-07T14:42:04.526Z,8.00
2019-04-07T14:44:32.278Z,7.40
2019-04-07T14:50:09.012Z,7.40
2019-04-07T14:52:45.522Z,7.60
2019-04-07T14:55:32.566Z,7.23
2019-04-07T14:58:19.252Z,7.73
2019-04-07T15:01:02.671Z,7.97
2019-04-07T15:03:28.983Z,7.43
2019-04-07T15:05:58.283Z,7.83
2019-04-07T15:08:36.609Z,7.50
2019-04-07T15:11:19.537Z,7.60
2019-04-07T15:13:48.143Z,7.57
2019-04-07T15:16:16.772Z,7.17
2019-04-07T15:18:45.713Z,7.37
2019-04-07T15:21:14.579Z,6.90
2019-04-07T15:23:45.781Z,6.60
2019-04-07T15:26:15.737Z,6.47
2019-04-07T15:28:44.663Z,6.47
2019-04-07T15:31:13.304Z,6.63
2019-04-07T15:33:42.381Z,6.93
2019-04-07T15:36:11.063Z,7.33
2019-04-07T15:38:40.832Z,6.13
2019-04-07T15:41:15.300Z,8.47
2019-04-07T15:43:40.118Z,5.97
2019-04-07T15:46:09.502Z,6.83
2019-04-07T15:48:38.777Z,6.60
2019-04-07T15:51:07.976Z,6.00
2019-04-07T15:53:37.001Z,6.70
2019-04-07T15:56:07.103Z,7.23
2019-04-07T15:58:35.713Z,6.37
2019-04-07T16:01:06.758Z,7.00
2019-04-07T16:03:34.496Z,6.43
2019-04-07T16:06:03.511Z,7.67
2019-04-07T16:08:32.042Z,7.47
2019-04-07T16:11:00.692Z,8.00
2019-04-07T16:13:29.919Z,7.27
2019-04-07T16:15:58.483Z,7.50
2019-04-07T16:18:26.988Z,7.60
2019-04-07T16:20:56.372Z,8.03
2019-04-07T16:23:25.198Z,7.97
2019-04-07T16:25:54.954Z,8.20
2019-04-07T16:28:24.153Z,7.93
2019-04-07T16:30:52.628Z,7.97
2019-04-07T16:33:21.732Z,9.13
2019-04-07T16:35:54.458Z,9.00
2019-04-07T16:38:20.713Z,10.03
2019-04-07T16:40:49.139Z,10.00
2019-04-07T16:43:18.945Z,9.77
2019-04-07T16:45:48.562Z,9.87
2019-04-07T16:48:17.367Z,9.40
2019-04-07T16:50:50.757Z,9.63
2019-04-07T16:53:16.342Z,10.53
2019-04-07T16:55:48.907Z,9.53
2019-04-07T16:58:16.275Z,8.93
2019-04-07T17:00:45.317Z,9.67
2019-04-07T17:03:13.963Z,8.07
2019-04-07T17:05:43.070Z,8.57
2019-04-07T17:08:12.756Z,8.97
2019-04-07T17:10:41.352Z,9.33
2019-04-07T17:13:19.366Z,10.13
2019-04-07T17:15:41.844Z,9.53
2019-04-07T17:18:21.404Z,10.03
2019-04-07T17:20:49.442Z,9.80
2019-04-07T17:23:21.344Z,9.57
2019-04-07T17:25:48.112Z,10.00
2019-04-07T17:28:16.670Z,11.40
2019-04-07T17:30:45.305Z,11.20
2019-04-07T17:33:13.829Z,11.80
2019-04-07T17:35:43.587Z,12.37
2019-04-07T17:38:13.816Z,11.70
2019-04-07T17:40:45.202Z,12.67
2019-04-07T17:43:25.687Z,11.03
2019-04-07T17:46:05.152Z,12.40
2019-04-07T17:48:41.519Z,11.50
2019-04-07T17:51:26.319Z,10.20
2019-04-07T17:53:57.118Z,11.33
2019-04-07T17:56:41.012Z,11.70
2019-04-07T17:59:20.885Z,12.40
2019-04-07T18:01:55.467Z,10.37
2019-04-07T18:04:30.642Z,10.67
2019-04-07T18:07:10.105Z,9.90
2019-04-07T18:09:50.176Z,10.30
2019-04-07T18:12:24.844Z,10.77
2019-04-07T18:15:10.153Z,10.80
2019-04-07T18:17:51.291Z,9.70
2019-04-07T18:20:39.578Z,9.07
2019-04-07T18:23:11.972Z,10.20
2019-04-07T18:25:50.555Z,9.63
2019-04-07T18:28:30.417Z,9.93
2019-04-07T18:31:06.737Z,9.77
2019-04-07T18:33:40.052Z,10.33
2019-04-07T18:36:28.995Z,9.77
2019-04-07T18:39:17.365Z,9.87
2019-04-07T18:41:49.409Z,10.90
2019-04-07T18:44:40.077Z,9.63
2019-04-07T18:47:23.372Z,10.00
2019-04-07T18:50:04.137Z,9.67
2019-04-07T18:52:35.698Z,9.57
2019-04-07T18:55:11.042Z,10.10
2019-04-07T18:57:56.299Z,9.60
2019-04-07T19:00:30.192Z,8.83
2019-04-07T19:03:16.390Z,9.43
2019-04-07T19:05:45.396Z,8.57
2019-04-07T19:08:20.263Z,9.07
2019-04-07T19:11:14.839Z,8.43
2019-04-07T19:13:39.949Z,8.97
2019-04-07T19:16:18.844Z,9.93
2019-04-07T19:19:01.487Z,9.73
2019-04-07T19:21:31.633Z,8.50
2019-04-07T19:24:02.447Z,9.43
2019-04-07T19:26:33.558Z,9.70
2019-04-07T19:29:08.543Z,8.90
2019-04-07T19:31:43.906Z,8.77
2019-04-07T19:34:32.815Z,8.33
2019-04-07T19:37:03.965Z,8.30
2019-04-07T19:39:34.914Z,8.30
2019-04-07T19:42:21.895Z,8.57
2019-04-07T19:44:55.411Z,8.43
2019-04-07T19:47:26.230Z,7.20
2019-04-07T19:50:05.260Z,6.20
2019-04-07T19:52:47.677Z,6.93
2019-04-07T19:55:30.337Z,8.73
2019-04-07T19:58:02.735Z,8.17
2019-04-07T20:00:35.525Z,8.60
2019-04-07T20:03:13.431Z,8.20
2019-04-07T20:05:43.473Z,7.90
2019-04-07T20:08:19.110Z,7.63
2019-04-07T20:10:49.889Z,9.10
2019-04-07T20:13:20.262Z,7.97
2019-04-07T20:15:57.809Z,8.07
2019-04-07T20:18:30.512Z,7.80
2019-04-07T20:21:03.550Z,8.20
2019-04-07T20:23:52.283Z,8.50
2019-04-07T20:26:22.700Z,8.70
2019-04-07T20:29:03.152Z,8.30
2019-04-07T20:31:47.188Z,7.83
2019-04-07T20:34:40.116Z,8.57
2019-04-07T20:37:07.764Z,8.33
2019-04-07T20:39:53.278Z,8.97
2019-04-07T20:42:26.932Z,9.00
2019-04-07T20:45:03.820Z,8.37
2019-04-07T20:47:45.341Z,8.27
2019-04-07T20:50:31.613Z,8.53
2019-04-07T20:53:12.627Z,8.20
2019-04-07T20:55:41.215Z,8.30
2019-04-07T20:58:23.926Z,7.40
2019-04-07T21:01:02.472Z,8.03
2019-04-07T21:03:50.345Z,8.90
2019-04-07T21:06:36.260Z,8.30
2019-04-07T21:09:17.729Z,7.73
2019-04-07T21:11:56.877Z,7.60
2019-04-07T21:14:29.922Z,7.90
2019-04-07T21:17:03.884Z,7.37
2019-04-07T21:19:52.449Z,8.00
2019-04-07T21:22:34.789Z,7.67
2019-04-07T21:25:23.744Z,8.53
2019-04-07T21:28:03.406Z,7.90
2019-04-07T21:30:44.823Z,7.83
2019-04-07T21:33:23.725Z,7.60
2019-04-07T21:36:04.815Z,7.00
2019-04-07T21:38:39.567Z,7.17
2019-04-07T21:41:12.219Z,7.93
2019-04-07T21:43:48.850Z,6.50
2019-04-07T21:46:23.557Z,7.60
2019-04-07T21:49:00.029Z,7.20
2019-04-07T21:51:41.061Z,8.20
2019-04-07T21:54:27.004Z,8.23
2019-04-07T21:57:14.846Z,7.10
2019-04-07T21:59:52.113Z,6.90
2019-04-07T22:02:22.592Z,7.67
2019-04-07T22:05:07.735Z,7.83
2019-04-07T22:07:54.203Z,7.43
2019-04-07T22:10:23.009Z,7.10
2019-04-07T22:12:51.972Z,7.83
2019-04-07T22:15:20.757Z,7.37
2019-04-07T22:17:49.283Z,7.10
2019-04-07T22:20:19.915Z,7.33
2019-04-07T22:22:48.138Z,7.20
2019-04-07T22:25:20.592Z,6.90
2019-04-07T22:27:49.297Z,7.10
2019-04-07T22:30:18.591Z,7.70
2019-04-07T22:32:50.946Z,6.83
2019-04-07T22:35:17.724Z,7.27
2019-04-07T22:37:49.719Z,7.47
2019-04-07T22:40:21.363Z,7.80
2019-04-07T22:42:50.114Z,7.50
2019-04-07T22:45:19.100Z,6.77
2019-04-07T22:47:51.484Z,6.90
2019-04-07T22:50:18.262Z,6.10
2019-04-07T22:52:49.271Z,7.30
2019-04-07T22:55:17.110Z,6.67
2019-04-07T22:57:45.625Z,6.97
2019-04-07T23:00:23.246Z,6.90
2019-04-07T23:02:52.089Z,6.97
2019-04-07T23:05:20.579Z,6.57
2019-04-07T23:07:50.082Z,7.03
2019-04-07T23:10:19.718Z,6.80
2019-04-07T23:12:48.321Z,7.00
2019-04-07T23:15:16.948Z,7.27
2019-04-07T23:17:47.232Z,7.17
2019-04-07T23:20:15.933Z,6.27
2019-04-07T23:22:44.585Z,6.60
2019-04-07T23:25:13.209Z,6.70
2019-04-07T23:27:41.710Z,7.13
2019-04-07T23:30:11.252Z,6.73
2019-04-07T23:32:39.802Z,6.50
2019-04-07T23:35:08.425Z,7.17
2019-04-07T23:37:37.048Z,6.63
2019-04-07T23:40:08.684Z,6.63
2019-04-07T23:42:38.184Z,6.77
2019-04-07T23:45:08.245Z,6.23
2019-04-07T23:47:37.066Z,6.90
2019-04-07T23:50:07.763Z,6.73
2019-04-07T23:52:36.279Z,6.60
2019-04-07T23:55:04.863Z,6.77
2019-04-07T23:57:33.356Z,6.60
